createdAt,value
2018-03-20T00:00:17.366Z,23.87
2018-03-20T00:02:45.778Z,24.23
2018-03-20T00:05:14.152Z,25.60
2018-03-20T00:07:42.461Z,23.50
2018-03-20T00:10:10.825Z,24.63
2018-03-20T00:12:39.213Z,24.70
2018-03-20T00:15:07.578Z,25.70
2018-03-20T00:17:35.943Z,23.87
2018-03-20T00:20:04.287Z,24.73
2018-03-20T00:22:32.618Z,25.60
2018-03-20T00:25:00.982Z,29.90
2018-03-20T00:27:29.311Z,26.70
2018-03-20T00:29:57.729Z,27.93
2018-03-20T00:32:26.086Z,29.90
2018-03-20T00:34:54.419Z,28.60
2018-03-20T00:37:22.746Z,28.53
2018-03-20T00:39:51.096Z,32.00
2018-03-20T00:42:19.434Z,29.90
2018-03-20T00:44:47.807Z,30.07
2018-03-20T00:47:16.285Z,30.60
2018-03-20T00:49:44.667Z,31.20
2018-03-20T00:52:13.015Z,31.10
2018-03-20T00:54:41.339Z,27.30
2018-03-20T00:57:09.679Z,29.67
2018-03-20T00:59:38.600Z,29.63
2018-03-20T01:02:06.950Z,28.40
2018-03-20T01:04:35.339Z,28.10
2018-03-20T01:07:03.728Z,28.17
2018-03-20T01:09:32.071Z,26.53
2018-03-20T01:12:00.470Z,25.37
2018-03-20T01:14:28.810Z,25.13
2018-03-20T01:16:57.238Z,27.10
2018-03-20T01:19:25.650Z,27.73
2018-03-20T01:21:54.100Z,27.43
2018-03-20T01:24:22.432Z,28.03
2018-03-20T01:26:50.857Z,29.77
2018-03-20T01:29:19.175Z,29.80
2018-03-20T01:31:47.543Z,30.10
2018-03-20T01:34:15.893Z,30.47
2018-03-20T01:36:44.246Z,28.10
2018-03-20T01:39:12.639Z,28.70
2018-03-20T01:41:40.991Z,26.80
2018-03-20T01:44:09.398Z,27.43
2018-03-20T01:46:37.871Z,27.50
2018-03-20T01:49:06.206Z,24.83
2018-03-20T01:51:34.626Z,25.23
2018-03-20T01:54:02.945Z,24.87
2018-03-20T01:56:31.286Z,26.97
2018-03-20T01:58:59.652Z,28.20
2018-03-20T02:01:27.984Z,26.30
2018-03-20T02:03:56.384Z,23.03
2018-03-20T02:06:24.796Z,26.23
2018-03-20T02:08:53.161Z,25.43
2018-03-20T02:11:21.495Z,23.00
2018-03-20T02:13:49.852Z,24.00
2018-03-20T02:16:18.170Z,24.63
2018-03-20T02:18:46.528Z,23.17
2018-03-20T02:21:14.867Z,23.33
2018-03-20T02:23:43.228Z,23.40
2018-03-20T02:26:11.545Z,23.53
2018-03-20T02:28:39.886Z,22.50
2018-03-20T02:31:08.214Z,22.77
2018-03-20T02:33:36.575Z,24.00
2018-03-20T02:36:04.926Z,24.13
2018-03-20T02:38:33.286Z,21.97
2018-03-20T02:41:01.616Z,24.40
2018-03-20T02:43:29.970Z,23.63
2018-03-20T02:45:58.299Z,20.97
2018-03-20T02:48:26.668Z,23.80
2018-03-20T02:50:55.105Z,24.60
2018-03-20T02:53:23.440Z,24.20
2018-03-20T02:55:51.794Z,22.33
2018-03-20T02:58:20.115Z,23.70
2018-03-20T03:00:48.673Z,22.63
2018-03-20T03:03:17.065Z,22.43
2018-03-20T03:05:45.465Z,23.10
2018-03-20T03:08:13.856Z,23.20
2018-03-20T03:10:42.226Z,24.87
2018-03-20T03:13:10.578Z,24.47
2018-03-20T03:15:38.982Z,25.60
2018-03-20T03:18:07.362Z,25.03
2018-03-20T03:20:35.733Z,25.10
2018-03-20T03:23:04.063Z,26.20
2018-03-20T03:25:32.423Z,26.67
2018-03-20T03:28:01.791Z,24.47
2018-03-20T03:30:30.176Z,26.17
2018-03-20T03:32:58.553Z,25.53
2018-03-20T03:35:26.907Z,24.83
2018-03-20T03:37:55.307Z,26.90
2018-03-20T03:40:23.662Z,24.90
2018-03-20T03:42:52.075Z,24.13
2018-03-20T03:45:20.446Z,23.53
2018-03-20T03:47:48.784Z,24.83
2018-03-20T03:50:17.146Z,25.47
2018-03-20T03:52:45.478Z,25.53
2018-03-20T03:55:13.807Z,24.57
2018-03-20T03:57:42.154Z,25.10
2018-03-20T04:00:10.484Z,26.10
2018-03-20T04:02:38.842Z,23.10
2018-03-20T04:05:07.176Z,25.10
2018-03-20T04:07:35.664Z,25.03
2018-03-20T04:10:03.992Z,24.67
2018-03-20T04:12:32.359Z,23.20
2018-03-20T04:15:00.695Z,22.07
2018-03-20T04:17:29.044Z,25.60
2018-03-20T04:19:57.383Z,25.40
2018-03-20T04:22:25.826Z,23.43
2018-03-20T04:24:54.251Z,24.43
2018-03-20T04:27:22.858Z,25.80
2018-03-20T04:29:51.262Z,24.80
2018-03-20T04:32:19.740Z,23.97
2018-03-20T04:34:48.126Z,25.50
2018-03-20T04:37:16.550Z,26.80
2018-03-20T04:39:44.889Z,22.70
2018-03-20T04:42:13.252Z,24.63
2018-03-20T04:44:41.569Z,24.30
2018-03-20T04:47:09.938Z,23.53
2018-03-20T04:49:38.255Z,24.30
2018-03-20T04:52:06.624Z,23.00
2018-03-20T04:54:34.955Z,25.30
2018-03-20T04:57:03.283Z,23.70
2018-03-20T04:59:31.639Z,23.73
2018-03-20T05:01:59.967Z,22.80
2018-03-20T05:04:28.350Z,23.40
2018-03-20T05:06:56.676Z,25.57
2018-03-20T05:09:25.054Z,26.60
2018-03-20T05:11:53.376Z,22.70
2018-03-20T05:14:21.898Z,25.60
2018-03-20T05:16:50.215Z,24.60
2018-03-20T05:22:34.758Z,22.40
2018-03-20T05:25:03.135Z,22.50
2018-03-20T05:27:31.478Z,21.00
2018-03-20T05:29:59.822Z,22.77
2018-03-20T05:32:28.150Z,23.47
2018-03-20T05:34:56.494Z,23.63
2018-03-20T05:37:24.833Z,23.23
2018-03-20T05:39:53.194Z,23.00
2018-03-20T05:42:21.521Z,21.33
2018-03-20T05:44:49.871Z,23.23
2018-03-20T05:47:32.832Z,24.30
2018-03-20T05:50:06.780Z,22.13
2018-03-20T05:52:35.132Z,22.63
2018-03-20T05:55:03.478Z,22.07
2018-03-20T05:57:31.875Z,23.30
2018-03-20T06:00:00.192Z,23.60
2018-03-20T06:02:28.540Z,22.43
2018-03-20T06:04:56.904Z,23.43
2018-03-20T06:07:25.267Z,23.27
2018-03-20T06:09:53.591Z,23.50
2018-03-20T06:12:21.946Z,22.60
2018-03-20T06:14:50.266Z,23.83
2018-03-20T06:17:18.615Z,22.87
2018-03-20T06:19:46.970Z,22.67
2018-03-20T06:22:15.318Z,23.23
2018-03-20T06:24:43.658Z,24.00
2018-03-20T06:27:12.014Z,22.10
2018-03-20T06:29:40.387Z,21.43
2018-03-20T06:32:08.754Z,22.03
2018-03-20T06:34:37.058Z,20.90
2018-03-20T06:37:05.526Z,21.17
2018-03-20T06:39:33.915Z,22.00
2018-03-20T06:42:02.313Z,22.13
2018-03-20T06:44:30.622Z,21.40
2018-03-20T06:46:58.983Z,21.57
2018-03-20T06:49:27.325Z,22.23
2018-03-20T06:51:55.663Z,21.87
2018-03-20T06:54:24.022Z,21.27
2018-03-20T06:56:52.447Z,21.90
2018-03-20T06:59:20.803Z,23.20
2018-03-20T07:01:49.131Z,23.87
2018-03-20T07:04:17.588Z,23.80
2018-03-20T07:06:45.919Z,22.37
2018-03-20T07:09:14.259Z,20.57
2018-03-20T07:11:42.588Z,22.53
2018-03-20T07:14:10.989Z,22.00
2018-03-20T07:16:39.310Z,20.33
2018-03-20T07:19:07.658Z,21.83
2018-03-20T07:21:35.982Z,21.37
2018-03-20T07:24:04.395Z,20.00
2018-03-20T07:26:32.717Z,19.10
2018-03-20T07:29:01.916Z,18.53
2018-03-20T07:31:30.252Z,16.33
2018-03-20T07:33:58.607Z,18.63
2018-03-20T07:36:26.931Z,20.70
2018-03-20T07:38:55.319Z,19.90
2018-03-20T07:41:23.667Z,17.30
2018-03-20T07:43:52.033Z,19.20
2018-03-20T07:46:20.434Z,18.17
2018-03-20T07:48:48.782Z,19.53
2018-03-20T07:51:17.141Z,18.80
2018-03-20T07:53:45.492Z,17.13
2018-03-20T07:56:13.833Z,17.90
2018-03-20T07:58:42.158Z,16.37
2018-03-20T08:01:10.501Z,18.97
2018-03-20T08:03:38.862Z,19.33
2018-03-20T08:06:07.385Z,16.87
2018-03-20T08:08:35.720Z,15.83
2018-03-20T08:11:04.114Z,18.00
2018-03-20T08:13:32.662Z,17.57
2018-03-20T08:16:01.065Z,17.53
2018-03-20T08:18:29.389Z,17.33
2018-03-20T08:20:57.825Z,16.67
2018-03-20T08:23:26.159Z,17.47
2018-03-20T08:25:54.659Z,16.40
2018-03-20T08:28:23.055Z,16.43
2018-03-20T08:30:51.412Z,16.70
2018-03-20T08:33:19.818Z,18.40
2018-03-20T08:35:48.171Z,17.63
2018-03-20T08:38:16.504Z,19.00
2018-03-20T08:40:44.868Z,15.17
2018-03-20T08:43:13.450Z,13.90
2018-03-20T08:45:41.806Z,14.50
2018-03-20T08:48:10.199Z,15.20
2018-03-20T08:50:38.544Z,15.20
2018-03-20T08:53:06.882Z,12.80
2018-03-20T08:55:35.916Z,14.50
2018-03-20T08:58:04.319Z,14.37
2018-03-20T09:00:32.702Z,16.93
2018-03-20T09:03:01.049Z,13.87
2018-03-20T09:05:29.386Z,16.10
2018-03-20T09:07:57.730Z,14.27
2018-03-20T09:10:26.103Z,15.77
2018-03-20T09:12:54.461Z,14.80
2018-03-20T09:15:22.862Z,13.57
2018-03-20T09:17:51.220Z,13.30
2018-03-20T09:20:19.618Z,14.00
2018-03-20T09:22:48.010Z,12.30
2018-03-20T09:25:16.338Z,12.03
2018-03-20T09:27:44.752Z,11.97
2018-03-20T09:30:13.080Z,12.63
2018-03-20T09:32:41.511Z,12.50
2018-03-20T09:35:09.883Z,11.23
2018-03-20T09:37:38.223Z,11.50
2018-03-20T09:40:06.602Z,12.80
2018-03-20T09:42:34.935Z,13.30
2018-03-20T09:45:03.259Z,12.90
2018-03-20T09:47:31.690Z,11.30
2018-03-20T09:50:00.007Z,11.57
2018-03-20T09:52:28.507Z,11.10
2018-03-20T09:54:56.838Z,10.40
2018-03-20T09:57:25.911Z,12.63
2018-03-20T09:59:54.248Z,11.03
2018-03-20T10:02:22.576Z,10.17
2018-03-20T10:04:50.942Z,10.60
2018-03-20T10:07:19.472Z,9.27
2018-03-20T10:09:47.723Z,10.13
2018-03-20T10:12:16.043Z,10.13
2018-03-20T10:14:44.388Z,12.33
2018-03-20T10:17:12.704Z,11.40
2018-03-20T10:19:41.111Z,10.07
2018-03-20T10:22:09.487Z,9.30
2018-03-20T10:24:37.824Z,9.03
2018-03-20T10:27:06.149Z,9.87
2018-03-20T10:29:34.566Z,9.73
2018-03-20T10:32:02.894Z,8.50
2018-03-20T10:34:31.247Z,8.90
2018-03-20T10:36:59.568Z,10.30
2018-03-20T10:39:27.914Z,10.37
2018-03-20T10:41:56.344Z,9.80
2018-03-20T10:44:24.672Z,10.03
2018-03-20T10:46:53.058Z,9.43
2018-03-20T10:49:21.436Z,10.10
2018-03-20T10:51:49.764Z,9.43
2018-03-20T10:54:18.123Z,9.87
2018-03-20T10:56:46.448Z,9.63
2018-03-20T10:59:14.822Z,9.33
2018-03-20T11:01:46.200Z,7.97
2018-03-20T11:04:14.523Z,8.33
2018-03-20T11:06:42.968Z,9.60
2018-03-20T11:09:11.283Z,9.30
2018-03-20T11:11:39.707Z,8.57
2018-03-20T11:14:08.019Z,8.30
2018-03-20T11:16:36.367Z,9.60
2018-03-20T11:19:04.687Z,9.80
2018-03-20T11:21:33.019Z,8.70
2018-03-20T11:24:01.342Z,7.63
2018-03-20T11:26:29.837Z,7.70
2018-03-20T11:28:58.300Z,10.87
2018-03-20T11:31:26.640Z,9.83
2018-03-20T11:33:55.022Z,9.10
2018-03-20T11:36:23.378Z,8.40
2018-03-20T11:38:51.698Z,9.10
2018-03-20T11:41:20.051Z,9.30
2018-03-20T11:43:48.436Z,9.53
2018-03-20T11:46:16.807Z,9.67
2018-03-20T11:48:45.126Z,9.30
2018-03-20T11:51:13.487Z,10.90
2018-03-20T11:53:41.953Z,8.47
2018-03-20T11:56:10.256Z,7.70
2018-03-20T11:58:38.590Z,11.37
2018-03-20T12:01:06.912Z,10.00
2018-03-20T12:03:35.266Z,9.77
2018-03-20T12:06:03.578Z,9.13
2018-03-20T12:08:43.979Z,10.10
2018-03-20T12:11:12.374Z,10.13
2018-03-20T12:13:40.752Z,8.83
2018-03-20T12:16:10.048Z,8.70
2018-03-20T12:18:38.401Z,9.27
2018-03-20T12:21:06.818Z,8.27
2018-03-20T12:23:35.147Z,7.80
2018-03-20T12:26:03.495Z,8.80
2018-03-20T12:28:31.846Z,9.20
2018-03-20T12:31:00.226Z,7.80
2018-03-20T12:33:28.561Z,9.70
2018-03-20T12:35:56.930Z,9.87
2018-03-20T12:38:25.346Z,10.10
2018-03-20T12:40:53.728Z,11.90
2018-03-20T12:43:22.114Z,12.40
2018-03-20T12:45:50.429Z,10.27
2018-03-20T12:48:18.756Z,10.23
2018-03-20T12:50:47.112Z,12.10
2018-03-20T12:53:15.458Z,8.90
2018-03-20T12:55:43.800Z,10.33
2018-03-20T12:58:12.132Z,9.90
2018-03-20T13:00:40.475Z,8.60
2018-03-20T13:03:08.827Z,10.43
2018-03-20T13:05:37.173Z,9.40
2018-03-20T13:08:05.486Z,9.30
2018-03-20T13:10:33.903Z,9.30
2018-03-20T13:13:02.276Z,10.03
2018-03-20T13:15:30.614Z,10.47
2018-03-20T13:17:58.959Z,10.70
2018-03-20T13:20:27.378Z,11.27
2018-03-20T13:22:55.705Z,11.27
2018-03-20T13:25:24.126Z,10.10
2018-03-20T13:27:52.476Z,9.17
2018-03-20T13:30:20.891Z,11.93
2018-03-20T13:32:49.210Z,10.40
2018-03-20T13:35:17.565Z,10.07
2018-03-20T13:37:45.887Z,10.23
2018-03-20T13:40:14.302Z,10.60
2018-03-20T13:42:42.623Z,10.43
2018-03-20T13:45:10.967Z,8.90
2018-03-20T13:47:39.332Z,10.03
2018-03-20T13:50:07.639Z,10.40
2018-03-20T13:52:35.987Z,11.13
2018-03-20T13:55:04.354Z,11.00
2018-03-20T13:57:32.780Z,11.10
2018-03-20T14:00:01.115Z,11.93
2018-03-20T14:02:29.495Z,12.67
2018-03-20T14:04:57.818Z,10.13
2018-03-20T14:07:26.168Z,10.40
2018-03-20T14:09:54.488Z,10.47
2018-03-20T14:12:22.839Z,11.60
2018-03-20T14:14:51.151Z,12.43
2018-03-20T14:17:19.511Z,11.50
2018-03-20T14:19:47.827Z,12.07
2018-03-20T14:22:16.181Z,12.37
2018-03-20T14:24:44.598Z,12.93
2018-03-20T14:27:12.963Z,12.37
2018-03-20T14:29:41.350Z,12.20
2018-03-20T14:32:09.694Z,10.20
2018-03-20T14:34:38.093Z,11.50
2018-03-20T14:37:06.482Z,10.90
2018-03-20T14:39:34.864Z,11.80
2018-03-20T14:42:03.239Z,11.30
2018-03-20T14:44:31.558Z,11.70
2018-03-20T14:46:59.900Z,11.00
2018-03-20T14:49:28.271Z,12.60
2018-03-20T14:51:56.599Z,11.57
2018-03-20T14:54:24.935Z,10.43
2018-03-20T14:56:53.267Z,11.60
2018-03-20T14:59:21.678Z,13.07
2018-03-20T15:01:50.116Z,11.60
2018-03-20T15:04:18.435Z,11.77
2018-03-20T15:06:46.814Z,12.80
2018-03-20T15:09:15.165Z,12.70
2018-03-20T15:11:43.575Z,13.13
2018-03-20T15:14:11.942Z,12.90
2018-03-20T15:16:40.340Z,13.43
2018-03-20T15:19:08.702Z,13.00
2018-03-20T15:21:37.098Z,11.90
2018-03-20T15:24:05.434Z,14.83
2018-03-20T15:26:33.875Z,12.23
2018-03-20T15:29:02.735Z,12.70
2018-03-20T15:31:31.128Z,15.23
2018-03-20T15:33:59.478Z,11.00
2018-03-20T15:36:27.787Z,11.70
2018-03-20T15:38:56.144Z,12.27
2018-03-20T15:41:24.478Z,11.70
2018-03-20T15:43:52.845Z,13.13
2018-03-20T15:46:21.189Z,12.43
2018-03-20T15:48:49.520Z,12.53
2018-03-20T15:51:17.880Z,13.83
2018-03-20T15:53:46.214Z,12.33
2018-03-20T15:56:14.562Z,11.47
2018-03-20T15:58:42.891Z,12.70
2018-03-20T16:01:11.253Z,13.33
2018-03-20T16:03:39.646Z,13.13
2018-03-20T16:06:07.988Z,11.60
2018-03-20T16:08:36.396Z,12.93
2018-03-20T16:11:04.763Z,12.67
2018-03-20T16:13:33.084Z,11.87
2018-03-20T16:16:01.507Z,11.57
2018-03-20T16:18:29.883Z,11.57
2018-03-20T16:20:58.219Z,12.57
2018-03-20T16:23:26.546Z,11.20
2018-03-20T16:25:54.907Z,11.70
2018-03-20T16:28:23.311Z,11.77
2018-03-20T16:30:51.781Z,11.63
2018-03-20T16:33:20.154Z,12.20
2018-03-20T16:35:48.555Z,10.43
2018-03-20T16:38:16.919Z,11.03
2018-03-20T16:40:45.278Z,10.60
2018-03-20T16:43:13.590Z,10.90
2018-03-20T16:45:42.058Z,10.77
2018-03-20T16:48:10.379Z,9.47
2018-03-20T16:50:38.682Z,9.47
2018-03-20T16:53:07.128Z,9.80
2018-03-20T16:55:35.444Z,9.73
2018-03-20T16:58:03.781Z,10.27
2018-03-20T17:00:32.091Z,9.53
2018-03-20T17:03:00.435Z,9.10
2018-03-20T17:05:28.772Z,8.00
2018-03-20T17:07:57.107Z,8.83
2018-03-20T17:10:25.426Z,8.73
2018-03-20T17:12:53.767Z,10.30
2018-03-20T17:15:22.089Z,9.87
2018-03-20T17:17:50.452Z,9.80
2018-03-20T17:20:18.770Z,9.57
2018-03-20T17:22:47.183Z,8.50
2018-03-20T17:25:15.462Z,7.97
2018-03-20T17:27:43.807Z,10.70
2018-03-20T17:30:12.167Z,8.17
2018-03-20T17:32:40.500Z,9.30
2018-03-20T17:35:08.916Z,10.27
2018-03-20T17:37:37.259Z,10.57
2018-03-20T17:40:05.591Z,10.70
2018-03-20T17:42:34.143Z,9.73
2018-03-20T17:45:02.455Z,8.10
2018-03-20T17:47:30.783Z,9.07
2018-03-20T17:49:59.175Z,8.80
2018-03-20T17:52:27.570Z,9.90
2018-03-20T17:54:55.935Z,9.83
2018-03-20T17:57:24.282Z,9.37
2018-03-20T17:59:52.607Z,9.27
2018-03-20T18:02:20.926Z,7.97
2018-03-20T18:04:49.352Z,8.93
2018-03-20T18:07:17.734Z,9.07
2018-03-20T18:09:46.079Z,8.83
2018-03-20T18:12:14.479Z,10.60
2018-03-20T18:14:42.832Z,9.70
2018-03-20T18:17:11.178Z,11.37
2018-03-20T18:19:39.479Z,9.87
2018-03-20T18:22:07.803Z,9.53
2018-03-20T18:24:36.131Z,10.80
2018-03-20T18:27:04.464Z,7.70
2018-03-20T18:29:32.831Z,8.60
2018-03-20T18:32:01.155Z,10.10
2018-03-20T18:34:29.532Z,8.97
2018-03-20T18:36:57.865Z,9.40
2018-03-20T18:39:26.199Z,10.80
2018-03-20T18:41:54.524Z,11.33
2018-03-20T18:44:22.887Z,10.07
2018-03-20T18:46:51.234Z,11.53
2018-03-20T18:49:19.643Z,10.50
2018-03-20T18:51:48.021Z,11.67
2018-03-20T18:54:16.407Z,9.10
2018-03-20T18:56:44.747Z,10.87
2018-03-20T18:59:13.059Z,11.00
2018-03-20T19:01:41.398Z,10.13
2018-03-20T19:04:09.732Z,10.43
2018-03-20T19:06:38.064Z,11.37
2018-03-20T19:09:06.385Z,11.00
2018-03-20T19:11:34.742Z,11.23
2018-03-20T19:14:03.082Z,12.33
2018-03-20T19:16:31.432Z,12.27
2018-03-20T19:18:59.740Z,12.03
2018-03-20T19:21:28.084Z,12.80
2018-03-20T19:23:56.414Z,11.77
2018-03-20T19:26:24.766Z,12.10
2018-03-20T19:28:53.133Z,11.73
2018-03-20T19:31:21.476Z,12.50
2018-03-20T19:33:49.815Z,11.60
2018-03-20T19:36:18.206Z,12.07
2018-03-20T19:38:46.543Z,12.87
2018-03-20T19:41:15.017Z,13.10
2018-03-20T19:43:43.326Z,12.03
2018-03-20T19:46:11.674Z,12.17
2018-03-20T19:48:40.152Z,12.57
2018-03-20T19:51:08.672Z,12.30
2018-03-20T19:53:37.622Z,13.57
2018-03-20T19:56:07.200Z,12.73
2018-03-20T19:58:35.822Z,13.77
2018-03-20T20:01:04.243Z,14.00
2018-03-20T20:03:33.784Z,14.60
2018-03-20T20:06:03.378Z,14.73
2018-03-20T20:08:31.759Z,15.90
2018-03-20T20:11:00.127Z,17.90
2018-03-20T20:13:28.501Z,18.83
2018-03-20T20:15:56.880Z,17.10
2018-03-20T20:18:25.244Z,18.00
2018-03-20T20:20:55.438Z,16.87
2018-03-20T20:23:23.803Z,18.13
2018-03-20T20:25:52.235Z,18.20
2018-03-20T20:28:20.587Z,20.10
2018-03-20T20:30:49.336Z,22.10
2018-03-20T20:33:17.682Z,18.80
2018-03-20T20:35:46.059Z,21.17
2018-03-20T20:38:14.457Z,20.23
2018-03-20T20:40:42.815Z,20.63
2018-03-20T20:43:11.234Z,20.77
2018-03-20T20:45:39.564Z,21.70
2018-03-20T20:48:07.949Z,20.40
2018-03-20T20:50:36.287Z,21.17
2018-03-20T20:53:04.704Z,21.80
2018-03-20T20:55:33.051Z,21.67
2018-03-20T20:58:01.382Z,24.87
2018-03-20T21:00:29.727Z,24.13
2018-03-20T21:02:58.067Z,21.97
2018-03-20T21:05:26.410Z,23.03
2018-03-20T21:07:54.883Z,23.40
2018-03-20T21:10:23.228Z,24.87
2018-03-20T21:12:51.627Z,24.70
2018-03-20T21:15:19.974Z,24.07
2018-03-20T21:17:48.383Z,24.07
2018-03-20T21:20:16.758Z,23.77
2018-03-20T21:22:45.091Z,23.80
2018-03-20T21:25:13.444Z,28.20
2018-03-20T21:27:41.762Z,25.33
2018-03-20T21:30:10.204Z,26.63
2018-03-20T21:32:38.549Z,25.00
2018-03-20T21:35:06.897Z,27.20
2018-03-20T21:37:35.224Z,25.90
2018-03-20T21:40:03.702Z,28.30
2018-03-20T21:42:32.044Z,26.70
2018-03-20T21:45:00.415Z,25.80
2018-03-20T21:47:28.731Z,27.27
2018-03-20T21:49:57.121Z,27.07
2018-03-20T21:52:25.483Z,26.43
2018-03-20T21:54:53.899Z,24.70
2018-03-20T21:57:22.331Z,26.43
2018-03-20T21:59:50.654Z,26.50
2018-03-20T22:02:19.092Z,26.17
2018-03-20T22:04:47.418Z,26.17
2018-03-20T22:07:15.848Z,25.47
2018-03-20T22:09:44.325Z,26.03
2018-03-20T22:12:12.710Z,27.20
2018-03-20T22:14:41.034Z,28.40
2018-03-20T22:17:09.397Z,27.07
2018-03-20T22:19:37.714Z,26.00
2018-03-20T22:22:06.069Z,27.83
2018-03-20T22:24:34.511Z,28.77
2018-03-20T22:27:02.908Z,26.27
2018-03-20T22:29:31.227Z,26.67
2018-03-20T22:31:59.636Z,28.17
2018-03-20T22:34:27.965Z,28.77
2018-03-20T22:36:56.302Z,27.20
2018-03-20T22:39:24.634Z,27.67
2018-03-20T22:41:53.050Z,29.20
2018-03-20T22:44:21.382Z,32.20
2018-03-20T22:46:49.806Z,26.80
2018-03-20T22:49:18.141Z,28.90
2018-03-20T22:51:46.461Z,30.03
2018-03-20T22:54:14.813Z,28.67
2018-03-20T22:56:43.134Z,30.80
2018-03-20T22:59:11.600Z,30.77
2018-03-20T23:01:39.926Z,29.67
2018-03-20T23:04:08.283Z,27.67
2018-03-20T23:06:36.621Z,27.90
2018-03-20T23:09:04.995Z,28.10
2018-03-20T23:11:33.332Z,30.60
2018-03-20T23:14:01.751Z,28.73
2018-03-20T23:16:30.130Z,31.77
2018-03-20T23:18:58.494Z,30.40
2018-03-20T23:21:26.807Z,32.03
2018-03-20T23:23:55.166Z,32.57
2018-03-20T23:26:23.496Z,29.80
2018-03-20T23:28:51.936Z,68.10
2018-03-20T23:31:20.270Z,63.90
2018-03-20T23:33:48.680Z,29.33
2018-03-20T23:36:17.076Z,29.90
2018-03-20T23:38:45.436Z,31.97
2018-03-20T23:41:13.759Z,30.00
2018-03-20T23:43:42.113Z,29.57
2018-03-20T23:46:10.443Z,30.60
2018-03-20T23:48:38.810Z,29.97
2018-03-20T23:51:07.152Z,31.70
2018-03-20T23:53:35.479Z,32.60
2018-03-20T23:56:03.887Z,31.80
2018-03-20T23:58:32.233Z,32.93
